createdAt,value
2022-10-22T00:02:44.798Z,18.70
2022-10-22T00:07:48.577Z,18.20
2022-10-22T00:12:50.983Z,18.63
2022-10-22T00:17:53.486Z,20.10
2022-10-22T00:22:57.209Z,20.85
2022-10-22T00:27:59.598Z,20.30
2022-10-22T00:33:01.983Z,21.98
2022-10-22T00:38:05.699Z,22.10
2022-10-22T00:43:11.149Z,24.05
2022-10-22T00:48:14.174Z,22.75
2022-10-22T00:53:19.770Z,24.95
2022-10-22T00:58:24.403Z,23.75
2022-10-22T01:03:26.816Z,24.65
2022-10-22T01:08:34.518Z,24.17
2022-10-22T01:13:42.915Z,23.50
2022-10-22T01:18:49.726Z,23.85
2022-10-22T01:24:06.958Z,23.58
2022-10-22T01:29:12.043Z,23.20
2022-10-22T01:34:15.933Z,22.65
2022-10-22T01:39:18.506Z,24.25
2022-10-22T01:44:29.721Z,24.10
2022-10-22T01:49:38.337Z,27.48
2022-10-22T01:54:45.073Z,31.08
2022-10-22T01:59:54.281Z,29.27
2022-10-22T02:04:59.656Z,29.98
2022-10-22T02:10:02.342Z,29.67
2022-10-22T02:15:06.710Z,26.50
2022-10-22T02:20:11.137Z,30.08
2022-10-22T02:25:13.669Z,28.70
2022-10-22T02:30:18.265Z,30.67
2022-10-22T02:35:22.276Z,28.95
2022-10-22T02:40:25.188Z,29.38
2022-10-22T02:45:28.887Z,29.88
2022-10-22T02:50:31.261Z,29.48
2022-10-22T02:55:33.621Z,28.75
2022-10-22T03:00:37.425Z,27.85
2022-10-22T03:05:39.844Z,28.17
2022-10-22T03:10:42.203Z,30.50
2022-10-22T03:15:45.924Z,27.75
2022-10-22T03:20:48.330Z,27.77
2022-10-22T03:25:50.820Z,30.40
2022-10-22T03:30:54.641Z,30.23
2022-10-22T03:35:57.026Z,29.52
2022-10-22T03:40:59.656Z,29.67
2022-10-22T03:46:03.416Z,29.30
2022-10-22T03:51:06.004Z,30.83
2022-10-22T03:56:09.401Z,32.10
2022-10-22T04:06:15.475Z,33.10
2022-10-22T04:11:18.192Z,35.25
2022-10-22T04:16:21.810Z,36.63
2022-10-22T04:21:26.172Z,37.67
2022-10-22T04:26:28.564Z,37.30
2022-10-22T04:31:30.902Z,37.90
2022-10-22T04:36:34.671Z,37.40
2022-10-22T04:41:37.976Z,36.60
2022-10-22T04:46:40.425Z,34.40
2022-10-22T04:51:44.160Z,34.25
2022-10-22T04:56:46.488Z,33.60
2022-10-22T05:01:48.861Z,35.33
2022-10-22T05:06:52.653Z,31.92
2022-10-22T05:11:55.930Z,33.50
2022-10-22T05:16:58.287Z,33.90
2022-10-22T05:22:03.036Z,32.28
2022-10-22T05:27:05.452Z,32.15
2022-10-22T05:32:07.818Z,29.57
2022-10-22T05:37:11.484Z,27.48
2022-10-22T05:42:13.822Z,29.38
2022-10-22T05:47:16.152Z,24.48
2022-10-22T05:52:19.807Z,24.98
2022-10-22T05:57:22.128Z,24.98
2022-10-22T06:02:24.514Z,24.77
2022-10-22T06:07:28.256Z,24.87
2022-10-22T06:12:30.611Z,22.08
2022-10-22T06:17:32.981Z,24.35
2022-10-22T06:22:36.701Z,22.95
2022-10-22T06:27:39.048Z,23.08
2022-10-22T06:32:41.999Z,22.27
2022-10-22T06:37:47.377Z,22.38
2022-10-22T06:42:49.757Z,22.42
2022-10-22T06:47:52.126Z,22.95
2022-10-22T06:52:55.824Z,19.10
2022-10-22T06:57:58.151Z,21.13
2022-10-22T07:03:00.529Z,19.58
2022-10-22T07:08:04.315Z,20.20
2022-10-22T07:13:06.661Z,18.20
2022-10-22T07:18:10.046Z,13.17
2022-10-22T07:23:13.747Z,12.82
2022-10-22T07:28:16.105Z,12.80
2022-10-22T07:33:18.492Z,11.40
2022-10-22T07:38:22.253Z,10.27
2022-10-22T07:43:24.987Z,10.75
2022-10-22T07:48:27.341Z,8.43
2022-10-22T07:53:31.224Z,6.57
2022-10-22T07:58:33.712Z,4.38
2022-10-22T08:03:36.253Z,3.55
2022-10-22T08:08:39.962Z,4.30
2022-10-22T08:13:45.398Z,3.50
2022-10-22T08:18:48.142Z,4.07
2022-10-22T08:23:51.841Z,3.42
2022-10-22T08:28:55.496Z,2.90
2022-10-22T08:33:57.854Z,3.13
2022-10-22T08:39:01.557Z,3.10
2022-10-22T08:44:13.951Z,4.03
2022-10-22T08:49:20.027Z,4.07
2022-10-22T08:54:29.668Z,3.10
2022-10-22T08:59:36.001Z,3.53
2022-10-22T09:04:41.569Z,3.60
2022-10-22T09:09:49.187Z,2.95
2022-10-22T09:14:51.603Z,3.47
2022-10-22T09:20:01.147Z,3.03
2022-10-22T09:25:12.276Z,3.33
2022-10-22T09:30:16.539Z,2.80
2022-10-22T09:35:22.381Z,3.80
2022-10-22T09:40:26.086Z,3.40
2022-10-22T09:45:28.440Z,3.70
2022-10-22T09:50:39.259Z,3.33
2022-10-22T09:55:43.534Z,3.33
2022-10-22T10:00:46.945Z,3.53
2022-10-22T10:05:50.512Z,4.60
2022-10-22T10:10:56.242Z,3.25
2022-10-22T10:16:03.495Z,3.63
2022-10-22T10:21:10.640Z,3.90
2022-10-22T10:26:17.522Z,3.95
2022-10-22T10:31:24.125Z,3.83
2022-10-22T10:36:31.059Z,3.70
2022-10-22T10:41:39.772Z,4.35
2022-10-22T10:46:47.006Z,3.70
2022-10-22T10:51:52.627Z,3.33
2022-10-22T10:56:57.880Z,4.05
2022-10-22T11:02:22.944Z,3.80
2022-10-22T11:07:34.548Z,3.90
2022-10-22T11:12:40.776Z,3.65
2022-10-22T11:17:45.875Z,4.38
2022-10-22T11:23:17.016Z,4.05
2022-10-22T11:33:24.211Z,3.40
2022-10-22T11:38:26.955Z,4.50
2022-10-22T11:43:32.349Z,4.18
2022-10-22T11:48:38.051Z,4.20
2022-10-22T11:53:40.407Z,4.05
2022-10-22T11:58:44.851Z,3.72
2022-10-22T12:03:49.523Z,4.00
2022-10-22T12:08:54.599Z,4.53
2022-10-22T12:14:12.788Z,3.70
2022-10-22T12:19:16.352Z,3.40
2022-10-22T12:24:20.468Z,2.67
2022-10-22T12:29:26.495Z,3.25
2022-10-22T12:34:29.427Z,3.67
2022-10-22T12:39:33.047Z,3.33
2022-10-22T12:44:36.710Z,3.70
2022-10-22T12:49:40.370Z,4.40
2022-10-22T12:54:42.824Z,3.40
2022-10-22T12:59:49.834Z,3.70
2022-10-22T13:05:10.484Z,4.25
2022-10-22T13:10:18.202Z,4.65
2022-10-22T13:15:24.150Z,3.75
2022-10-22T13:20:26.610Z,3.60
2022-10-22T13:25:30.096Z,3.05
2022-10-22T13:30:35.298Z,3.03
2022-10-22T13:35:38.260Z,2.60
2022-10-22T13:40:40.591Z,3.10
2022-10-22T13:45:45.319Z,2.90
2022-10-22T13:50:47.681Z,2.85
2022-10-22T13:55:50.378Z,2.80
2022-10-22T14:00:55.580Z,2.72
2022-10-22T14:05:58.211Z,2.90
2022-10-22T14:11:00.545Z,2.42
2022-10-22T14:16:05.250Z,2.75
2022-10-22T14:21:08.345Z,2.75
2022-10-22T14:26:15.108Z,3.42
2022-10-22T14:31:18.825Z,3.17
2022-10-22T14:36:21.250Z,3.05
2022-10-22T14:41:24.641Z,3.53
2022-10-22T14:46:28.378Z,3.53
2022-10-22T14:51:30.721Z,3.58
2022-10-22T14:56:33.128Z,4.40
2022-10-22T15:01:36.878Z,3.47
2022-10-22T15:06:39.233Z,4.53
2022-10-22T15:11:42.655Z,3.33
2022-10-22T15:16:46.362Z,4.07
2022-10-22T15:21:48.715Z,3.67
2022-10-22T15:26:53.222Z,4.40
2022-10-22T15:31:58.097Z,5.10
2022-10-22T15:37:01.392Z,4.53
2022-10-22T15:42:03.768Z,4.85
2022-10-22T15:47:08.037Z,4.53
2022-10-22T15:52:10.415Z,4.82
2022-10-22T15:57:12.742Z,5.43
2022-10-22T16:02:16.493Z,5.10
2022-10-22T16:07:21.115Z,10.25
2022-10-22T16:12:26.330Z,7.38
2022-10-22T16:17:30.038Z,7.73
2022-10-22T16:22:33.501Z,7.65
2022-10-22T16:27:35.862Z,8.45
2022-10-22T16:32:39.942Z,8.23
2022-10-22T16:37:42.767Z,9.02
2022-10-22T16:42:45.438Z,9.30
2022-10-22T16:47:49.556Z,22.10
2022-10-22T16:52:51.934Z,16.08
2022-10-22T16:57:54.402Z,11.60
2022-10-22T17:02:58.131Z,11.60
2022-10-22T17:08:00.495Z,15.38
2022-10-22T17:13:02.930Z,13.30
2022-10-22T17:18:06.753Z,13.97
2022-10-22T17:23:09.112Z,33.15
2022-10-22T17:28:11.813Z,21.08
2022-10-22T17:33:15.514Z,21.48
2022-10-22T17:38:17.881Z,14.52
2022-10-22T17:43:20.224Z,14.40
2022-10-22T17:48:23.948Z,16.75
2022-10-22T17:53:26.322Z,15.23
2022-10-22T17:58:29.969Z,17.70
2022-10-22T18:03:34.538Z,15.20
2022-10-22T18:08:37.066Z,15.13
2022-10-22T18:13:39.502Z,18.57
2022-10-22T18:18:45.838Z,19.23
2022-10-22T18:23:48.298Z,21.88
2022-10-22T18:28:50.706Z,18.27
2022-10-22T18:33:55.201Z,18.73
2022-10-22T18:38:59.803Z,19.38
2022-10-22T18:44:03.645Z,21.65
2022-10-22T18:49:08.068Z,17.67
2022-10-22T18:54:22.569Z,21.70
2022-10-22T18:59:26.823Z,22.23
2022-10-22T19:04:36.464Z,34.50
2022-10-22T19:09:38.828Z,25.92
2022-10-22T19:14:41.457Z,19.67
2022-10-22T19:19:46.207Z,21.00
2022-10-22T19:24:49.755Z,19.33
2022-10-22T19:29:52.124Z,18.27
2022-10-22T19:34:55.825Z,23.45
2022-10-22T19:39:58.191Z,25.95
2022-10-22T19:45:00.526Z,23.70
2022-10-22T19:50:04.392Z,35.95
2022-10-22T19:55:06.898Z,32.67
2022-10-22T20:00:09.992Z,28.80
2022-10-22T20:05:13.845Z,30.30
2022-10-22T20:10:16.285Z,43.45
2022-10-22T20:15:18.782Z,40.85
2022-10-22T20:20:26.317Z,28.73
2022-10-22T20:25:28.960Z,21.88
2022-10-22T20:30:31.319Z,23.88
2022-10-22T20:35:35.567Z,21.55
2022-10-22T20:40:37.909Z,23.25
2022-10-22T20:45:40.225Z,22.85
2022-10-22T20:50:43.920Z,26.50
2022-10-22T20:55:46.297Z,25.52
2022-10-22T21:00:48.776Z,22.23
2022-10-22T21:05:52.507Z,25.80
2022-10-22T21:10:54.874Z,26.90
2022-10-22T21:15:57.234Z,32.40
2022-10-22T21:21:00.894Z,38.78
2022-10-22T21:26:03.387Z,36.55
2022-10-22T21:31:06.936Z,30.00
2022-10-22T21:36:10.809Z,30.08
2022-10-22T21:41:14.403Z,29.00
2022-10-22T21:46:18.051Z,31.77
2022-10-22T21:51:22.146Z,30.48
2022-10-22T21:56:25.333Z,31.63
2022-10-22T22:01:27.812Z,33.58
2022-10-22T22:06:33.424Z,32.27
2022-10-22T22:11:36.642Z,30.92
2022-10-22T22:16:39.052Z,37.30
2022-10-22T22:21:42.796Z,41.85
2022-10-22T22:26:45.165Z,41.45
2022-10-22T22:31:47.516Z,30.90
2022-10-22T22:36:51.214Z,33.10
2022-10-22T22:41:53.581Z,28.17
2022-10-22T22:46:55.921Z,29.42
2022-10-22T22:51:59.856Z,30.10
2022-10-22T22:57:02.226Z,27.55
2022-10-22T23:02:04.620Z,29.25
2022-10-22T23:07:08.329Z,30.63
2022-10-22T23:12:10.649Z,35.58
2022-10-22T23:17:12.975Z,36.25
2022-10-22T23:22:16.689Z,29.67
2022-10-22T23:27:19.054Z,31.70
2022-10-22T23:32:21.394Z,39.38
2022-10-22T23:37:25.056Z,31.67
2022-10-22T23:42:27.418Z,30.17
2022-10-22T23:47:29.793Z,31.20
2022-10-22T23:52:33.490Z,31.40
2022-10-22T23:57:35.836Z,27.75
